createdAt,value
2022-10-23T00:01:43.855Z,13.03
2022-10-23T00:04:30.678Z,13.07
2022-10-23T00:07:18.140Z,13.03
2022-10-23T00:10:05.430Z,12.95
2022-10-23T00:12:53.611Z,12.95
2022-10-23T00:15:40.474Z,13.00
2022-10-23T00:18:27.332Z,12.88
2022-10-23T00:21:16.795Z,12.77
2022-10-23T00:24:03.918Z,12.74
2022-10-23T00:26:50.929Z,12.83
2022-10-23T00:29:37.829Z,12.80
2022-10-23T00:32:24.676Z,12.73
2022-10-23T00:35:11.774Z,12.85
2022-10-23T00:37:58.557Z,12.79
2022-10-23T00:40:47.036Z,12.81
2022-10-23T00:43:56.936Z,12.81
2022-10-23T00:46:44.744Z,12.74
2022-10-23T00:49:33.585Z,12.79
2022-10-23T00:52:21.533Z,12.74
2022-10-23T00:55:08.537Z,12.82
2022-10-23T00:57:56.019Z,12.78
2022-10-23T01:00:45.800Z,12.81
2022-10-23T01:03:34.872Z,12.77
2022-10-23T01:06:34.924Z,12.83
2022-10-23T01:09:34.433Z,12.78
2022-10-23T01:12:46.954Z,12.66
2022-10-23T01:16:00.964Z,12.68
2022-10-23T01:19:01.708Z,12.69
2022-10-23T01:22:10.886Z,12.68
2022-10-23T01:25:03.017Z,12.58
2022-10-23T01:28:04.908Z,12.60
2022-10-23T01:30:53.793Z,12.61
2022-10-23T01:33:44.780Z,12.65
2022-10-23T01:36:33.332Z,12.60
2022-10-23T01:39:36.187Z,12.59
2022-10-23T01:42:28.812Z,12.53
2022-10-23T01:45:27.860Z,12.53
2022-10-23T01:48:19.161Z,12.48
2022-10-23T01:51:11.697Z,12.27
2022-10-23T01:54:00.712Z,12.34
2022-10-23T01:56:51.567Z,12.37
2022-10-23T01:59:53.459Z,12.39
2022-10-23T02:02:43.769Z,12.32
2022-10-23T02:05:31.351Z,12.36
2022-10-23T02:08:18.884Z,12.38
2022-10-23T02:11:19.905Z,12.32
2022-10-23T02:14:25.704Z,12.31
2022-10-23T02:17:24.907Z,12.29
2022-10-23T02:20:29.297Z,12.27
2022-10-23T02:23:24.456Z,11.99
2022-10-23T02:26:20.584Z,12.14
2022-10-23T02:29:15.769Z,12.15
2022-10-23T02:32:08.750Z,12.17
2022-10-23T02:34:35.479Z,12.16
2022-10-23T02:37:02.560Z,12.13
2022-10-23T02:39:29.793Z,12.14
2022-10-23T02:42:06.993Z,12.15
2022-10-23T02:44:48.617Z,12.13
2022-10-23T02:47:46.025Z,12.11
2022-10-23T02:50:32.472Z,12.09
2022-10-23T02:53:02.437Z,11.74
2022-10-23T02:55:54.950Z,11.77
2022-10-23T02:58:34.836Z,11.86
2022-10-23T03:01:08.191Z,11.76
2022-10-23T03:03:45.564Z,11.78
2022-10-23T03:06:12.142Z,11.80
2022-10-23T03:08:49.908Z,11.83
2022-10-23T03:11:18.492Z,11.73
2022-10-23T03:13:45.106Z,11.75
2022-10-23T03:16:11.840Z,11.73
2022-10-23T03:18:38.365Z,11.72
2022-10-23T03:21:04.883Z,11.73
2022-10-23T03:23:33.476Z,11.69
2022-10-23T03:26:00.809Z,11.60
2022-10-23T03:28:40.979Z,11.61
2022-10-23T03:31:07.464Z,11.58
2022-10-23T03:33:33.968Z,11.62
2022-10-23T03:36:11.452Z,11.57
2022-10-23T03:38:37.942Z,11.26
2022-10-23T03:41:05.351Z,11.40
2022-10-23T03:43:32.017Z,11.40
2022-10-23T03:46:01.961Z,11.40
2022-10-23T03:48:28.450Z,11.44
2022-10-23T03:50:58.244Z,11.42
2022-10-23T03:53:24.760Z,11.42
2022-10-23T03:55:51.209Z,11.20
2022-10-23T03:58:17.729Z,11.29
2022-10-23T04:00:45.172Z,11.24
2022-10-23T04:03:11.633Z,11.27
2022-10-23T04:05:39.057Z,11.28
2022-10-23T04:08:05.500Z,11.28
2022-10-23T04:10:33.348Z,11.32
2022-10-23T04:13:04.569Z,11.25
2022-10-23T04:15:35.109Z,11.25
2022-10-23T04:18:02.464Z,11.24
2022-10-23T04:20:31.937Z,11.22
2022-10-23T04:23:01.783Z,11.23
2022-10-23T04:25:33.497Z,11.25
2022-10-23T04:28:00.089Z,11.26
2022-10-23T04:30:26.644Z,11.25
2022-10-23T04:32:55.905Z,11.26
2022-10-23T04:35:22.420Z,11.25
2022-10-23T04:37:49.034Z,11.17
2022-10-23T04:40:15.541Z,11.16
2022-10-23T04:42:42.418Z,11.16
2022-10-23T04:45:11.628Z,11.18
2022-10-23T04:47:40.826Z,10.93
2022-10-23T04:50:07.673Z,10.94
2022-10-23T04:52:56.704Z,10.95
2022-10-23T04:55:54.243Z,10.87
2022-10-23T04:58:27.488Z,10.87
2022-10-23T05:00:56.720Z,10.93
2022-10-23T05:03:26.112Z,10.93
2022-10-23T05:05:55.454Z,10.92
2022-10-23T05:08:31.493Z,10.94
2022-10-23T05:11:23.925Z,10.90
2022-10-23T05:13:51.293Z,10.92
2022-10-23T05:16:36.036Z,10.89
2022-10-23T05:19:03.900Z,10.93
2022-10-23T05:21:34.077Z,10.90
2022-10-23T05:24:03.313Z,10.86
2022-10-23T05:26:31.828Z,10.79
2022-10-23T05:29:03.601Z,10.80
2022-10-23T05:31:30.420Z,10.82
2022-10-23T05:34:04.447Z,10.84
2022-10-23T05:36:31.657Z,10.82
2022-10-23T05:38:59.053Z,10.82
2022-10-23T05:41:26.193Z,10.89
2022-10-23T05:43:59.532Z,10.79
2022-10-23T05:46:48.581Z,10.87
2022-10-23T05:49:25.857Z,10.90
2022-10-23T05:52:22.845Z,10.87
2022-10-23T05:55:18.542Z,10.83
2022-10-23T05:58:03.377Z,10.85
2022-10-23T06:00:50.080Z,10.94
2022-10-23T06:03:47.002Z,10.76
2022-10-23T06:06:13.528Z,10.87
2022-10-23T06:08:47.246Z,10.95
2022-10-23T06:11:15.364Z,10.82
2022-10-23T06:13:48.673Z,10.95
2022-10-23T06:16:20.648Z,11.08
2022-10-23T06:18:50.637Z,11.07
2022-10-23T06:21:18.804Z,11.09
2022-10-23T06:23:48.027Z,11.16
2022-10-23T06:26:16.389Z,11.18
2022-10-23T06:29:12.076Z,11.39
2022-10-23T06:31:40.968Z,11.39
2022-10-23T06:34:10.714Z,11.52
2022-10-23T06:36:39.783Z,11.57
2022-10-23T06:39:44.066Z,11.64
2022-10-23T06:42:16.512Z,11.77
2022-10-23T06:45:13.668Z,11.89
2022-10-23T06:48:19.052Z,12.00
2022-10-23T06:51:11.108Z,11.94
2022-10-23T06:54:03.696Z,12.01
2022-10-23T06:57:08.873Z,12.06
2022-10-23T07:00:04.170Z,12.02
2022-10-23T07:02:58.833Z,12.23
